Time;durP1;ratioP1;P1;durP2;ratioP2;P2;SDS_P1;SDS_P2;PMS_P1;PMS_P2;Temp;Humidity;BMP_temperature;BMP_pressure;BME280_temperature;BME280_humidity;BME280_pressure;Samples;Min_cycle;Max_cycle;Signal;HPM_P1;HPM_P2
2023/07/13 00:00:53;;;;;;;11.60;2.93;;;;;;;18.42;66.23;101319.72;5256801;28;20360;-72
2023/07/13 00:03:24;;;;;;;7.87;2.53;;;;;;;18.42;66.61;101317.91;5257428;28;20017;-72
2023/07/13 00:06:00;;;;;;;11.63;2.63;;;;;;;18.53;66.29;101327.59;5255877;28;20027;-72
2023/07/13 00:08:32;;;;;;;6.23;2.80;;;;;;;18.37;67.62;101326.28;5256753;28;20563;-71
2023/07/13 00:11:04;;;;;;;8.67;1.67;;;;;;;18.41;67.11;101324.19;5256606;28;20037;-72
2023/07/13 00:13:38;;;;;;;7.47;1.63;;;;;;;18.28;68.41;101328.84;5256841;28;20025;-72
2023/07/13 00:16:11;;;;;;;9.13;1.80;;;;;;;18.41;68.16;101312.75;5256956;28;20411;-72
2023/07/13 00:18:42;;;;;;;5.87;1.70;;;;;;;18.50;67.19;101319.91;5256098;28;20032;-72
2023/07/13 00:21:14;;;;;;;7.33;2.30;;;;;;;18.41;68.25;101316.25;5255973;28;20055;-71
2023/07/13 00:23:45;;;;;;;5.03;1.77;;;;;;;18.36;68.93;101319.28;5256780;28;20060;-72
2023/07/13 00:26:17;;;;;;;12.13;2.60;;;;;;;18.44;68.18;101323.94;5256352;28;20079;-72
2023/07/13 00:28:48;;;;;;;11.43;2.37;;;;;;;18.30;69.38;101317.16;5256056;28;20017;-71
2023/07/13 00:31:20;;;;;;;9.77;2.50;;;;;;;18.43;68.90;101314.28;5256021;28;20021;-71
2023/07/13 00:33:51;;;;;;;7.03;2.00;;;;;;;18.53;68.70;101324.09;5247947;28;20028;-72
2023/07/13 00:36:23;;;;;;;6.17;2.30;;;;;;;18.31;69.22;101316.19;5255776;28;20064;-71
2023/07/13 00:38:54;;;;;;;7.67;2.60;;;;;;;18.23;70.49;101331.91;5255619;28;20023;-72
2023/07/13 00:41:26;;;;;;;7.97;3.20;;;;;;;18.23;70.28;101321.31;5242023;28;20101;-72
2023/07/13 00:43:57;;;;;;;7.30;2.73;;;;;;;18.15;71.25;101335.22;5253183;28;20078;-72
2023/07/13 00:46:31;;;;;;;11.53;4.40;;;;;;;18.22;70.74;101335.53;5249320;28;20086;-72
2023/07/13 00:49:06;;;;;;;6.85;2.88;;;;;;;18.19;70.82;101335.78;5256293;28;20035;-72
2023/07/13 00:51:37;;;;;;;;;;;;;;;18.68;66.43;101336.03;5255182;28;20056;-72
2023/07/13 00:54:12;;;;;;;7.60;2.33;;;;;;;18.18;70.96;101336.75;5256412;28;19994;-72
2023/07/13 00:56:46;;;;;;;6.67;1.90;;;;;;;17.73;74.78;101333.38;5255822;28;20029;-71
2023/07/13 00:59:19;;;;;;;8.52;2.60;;;;;;;17.94;73.11;101329.88;5255948;28;20028;-71
2023/07/13 01:04:34;;;;;;;5.33;1.77;;;;;;;17.86;74.03;101334.00;5210749;28;20050;-72
2023/07/13 01:07:06;;;;;;;9.77;2.40;;;;;;;17.77;74.54;101330.31;5218420;28;20029;-72
2023/07/13 01:09:38;;;;;;;8.00;1.80;;;;;;;17.72;75.00;101331.66;5231403;28;20024;-72
2023/07/13 01:12:09;;;;;;;7.83;2.13;;;;;;;17.79;74.79;101330.19;5233930;28;20021;-72
2023/07/13 01:14:41;;;;;;;11.47;2.90;;;;;;;17.61;76.01;101325.44;5233914;28;20021;-72
2023/07/13 01:17:12;;;;;;;13.17;3.30;;;;;;;17.82;75.50;101323.81;5235425;28;20033;-72
2023/07/13 01:19:45;;;;;;;13.07;3.10;;;;;;;17.76;75.80;101333.94;5233116;28;20029;-72
2023/07/13 01:22:18;;;;;;;5.80;1.80;;;;;;;17.65;76.28;101332.19;5234984;28;20029;-71
2023/07/13 01:24:50;;;;;;;7.53;2.33;;;;;;;17.70;76.13;101329.16;5234083;28;20017;-72
2023/07/13 01:27:25;;;;;;;12.60;2.07;;;;;;;17.61;77.57;101340.53;5235142;28;20403;-72
2023/07/13 01:30:01;;;;;;;7.40;2.10;;;;;;;17.65;77.83;101347.22;5234424;28;20057;-71
2023/07/13 01:32:33;;;;;;;8.50;2.30;;;;;;;17.51;78.50;101338.63;5234023;28;20487;-71
2023/07/13 01:35:05;;;;;;;6.93;2.30;;;;;;;17.61;77.96;101346.63;5233423;28;20022;-72
2023/07/13 01:37:36;;;;;;;7.47;1.93;;;;;;;17.61;77.66;101336.03;5234857;28;20475;-71
2023/07/13 01:40:09;;;;;;;5.80;1.80;;;;;;;17.56;78.25;101335.59;5234424;28;20029;-72
2023/07/13 01:42:40;;;;;;;7.80;1.80;;;;;;;17.58;78.26;101344.25;5234347;28;20036;-72
2023/07/13 01:45:12;;;;;;;9.10;2.37;;;;;;;17.53;79.33;101354.38;5234545;28;20108;-72
2023/07/13 01:47:43;;;;;;;8.60;1.93;;;;;;;17.40;79.74;101352.72;5233948;28;20029;-71
2023/07/13 01:50:15;;;;;;;8.93;2.07;;;;;;;17.45;79.40;101346.22;5215897;28;20032;-71
2023/07/13 01:52:46;;;;;;;10.20;2.50;;;;;;;17.42;79.63;101360.53;5239293;28;20037;-72
2023/07/13 01:55:18;;;;;;;5.07;1.83;;;;;;;17.11;82.27;101349.78;5240534;28;20611;-72
2023/07/13 01:57:49;;;;;;;8.63;2.37;;;;;;;17.31;80.63;101355.28;5216191;28;20068;-71
2023/07/13 02:00:21;;;;;;;9.97;2.63;;;;;;;17.26;81.24;101350.38;5234053;28;20029;-72
2023/07/13 02:02:52;;;;;;;9.80;2.97;;;;;;;17.22;81.78;101352.41;5233468;28;20050;-72
2023/07/13 02:05:24;;;;;;;9.20;1.90;;;;;;;17.23;81.79;101350.59;5233428;28;20062;-72
2023/07/13 02:07:55;;;;;;;7.37;2.30;;;;;;;17.09;82.99;101349.88;5234289;28;20029;-71
2023/07/13 02:10:28;;;;;;;6.70;2.30;;;;;;;17.10;82.06;101346.31;5233461;28;20035;-72
2023/07/13 02:12:59;;;;;;;9.00;2.83;;;;;;;17.13;82.92;101364.59;5202758;28;20456;-72
2023/07/13 02:15:31;;;;;;;8.77;3.03;;;;;;;17.00;84.09;101358.56;5234315;28;20032;-72
2023/07/13 02:18:03;;;;;;;9.30;2.10;;;;;;;17.15;83.33;101367.09;5234174;28;20029;-72
2023/07/13 02:20:35;;;;;;;7.37;2.27;;;;;;;17.06;84.31;101366.00;5214895;28;20063;-72
2023/07/13 02:23:06;;;;;;;6.93;2.13;;;;;;;17.06;84.43;101360.72;5216401;28;20623;-72
2023/07/13 02:25:37;;;;;;;11.77;2.87;;;;;;;17.04;84.48;101354.69;5232938;28;20052;-71
2023/07/13 02:28:09;;;;;;;6.60;2.07;;;;;;;17.06;84.65;101363.34;5233307;28;20030;-71
2023/07/13 02:30:40;;;;;;;8.60;2.40;;;;;;;17.03;85.07;101355.66;5233517;28;20021;-71
2023/07/13 02:33:12;;;;;;;9.60;3.30;;;;;;;17.06;84.81;101366.00;5206085;28;20415;-71
2023/07/13 02:35:43;;;;;;;8.57;2.63;;;;;;;17.01;84.94;101342.56;5231257;28;20410;-72
2023/07/13 02:38:14;;;;;;;10.87;3.13;;;;;;;17.04;85.06;101354.69;5232727;28;20703;-72
2023/07/13 02:40:46;;;;;;;10.70;2.33;;;;;;;16.98;85.68;101358.69;5231754;28;20049;-71
2023/07/13 02:43:17;;;;;;;8.87;2.40;;;;;;;17.01;85.47;101357.59;5232881;28;20028;-71
2023/07/13 02:45:49;;;;;;;12.13;3.23;;;;;;;16.97;85.69;101356.13;5232177;28;20064;-71
2023/07/13 02:48:20;;;;;;;10.73;2.93;;;;;;;16.90;86.50;101356.63;5232287;28;20022;-72
2023/07/13 02:50:51;;;;;;;9.00;3.47;;;;;;;16.95;86.52;101358.09;5231408;28;20168;-71
2023/07/13 02:53:23;;;;;;;11.23;2.27;;;;;;;17.00;86.39;101363.84;5226064;28;20026;-71
2023/07/13 02:55:54;;;;;;;10.00;2.50;;;;;;;16.93;86.56;101355.56;5211467;28;20172;-71
2023/07/13 02:58:25;;;;;;;8.73;2.67;;;;;;;16.89;87.54;101359.41;5229084;28;20127;-72
2023/07/13 03:00:57;;;;;;;6.23;2.60;;;;;;;16.84;88.10;101359.78;5231877;28;20376;-72
2023/07/13 03:03:29;;;;;;;12.77;2.83;;;;;;;16.75;89.24;101363.97;5217317;28;20041;-72
2023/07/13 03:06:03;;;;;;;8.40;2.73;;;;;;;16.78;89.41;101357.59;5231853;28;20120;-71
2023/07/13 03:08:34;;;;;;;6.00;1.77;;;;;;;16.66;90.10;101354.97;5231825;28;20027;-71
2023/07/13 03:11:10;;;;;;;8.83;2.47;;;;;;;16.79;89.47;101361.94;5220150;28;20026;-71
2023/07/13 03:13:42;;;;;;;8.57;2.73;;;;;;;16.70;90.60;101360.84;5231062;28;20049;-71
2023/07/13 03:16:18;;;;;;;6.00;2.10;;;;;;;16.68;91.16;101358.34;5231971;28;20025;-71
2023/07/13 03:18:49;;;;;;;5.90;2.40;;;;;;;16.61;92.38;101359.75;5231002;28;20188;-71
2023/07/13 03:21:21;;;;;;;8.30;2.20;;;;;;;16.68;92.11;101360.97;5232660;28;20025;-71
2023/07/13 03:23:52;;;;;;;8.07;2.77;;;;;;;16.61;92.28;101356.28;5231227;28;20116;-71
2023/07/13 03:26:24;;;;;;;10.93;2.43;;;;;;;16.67;92.44;101364.56;5232209;28;20475;-71
2023/07/13 03:28:55;;;;;;;9.37;2.67;;;;;;;16.62;93.45;101364.09;5217828;28;20029;-71
2023/07/13 03:31:30;;;;;;;10.50;2.70;;;;;;;16.60;94.37;101366.00;5231411;28;20392;-71
2023/07/13 03:34:01;;;;;;;12.97;3.47;;;;;;;16.54;94.53;101366.50;5231284;28;20029;-71
2023/07/13 03:36:32;;;;;;;7.27;2.63;;;;;;;16.57;94.86;101382.09;5232717;28;20484;-71
2023/07/13 03:39:08;;;;;;;10.53;3.53;;;;;;;16.32;96.92;101366.31;5217548;28;20113;-71
2023/07/13 03:41:39;;;;;;;12.47;4.07;;;;;;;16.59;95.70;101379.34;5235312;28;20527;-71
2023/07/13 03:44:11;;;;;;;10.37;2.53;;;;;;;16.54;96.18;101366.50;5234577;28;20166;-71
2023/07/13 03:46:43;;;;;;;13.77;3.33;;;;;;;16.35;99.59;101386.41;5235710;28;20038;-71
2023/07/13 03:49:15;;;;;;;7.60;2.33;;;;;;;16.56;97.27;101380.44;5230959;28;20357;-71
2023/07/13 03:51:47;;;;;;;11.77;2.73;;;;;;;16.56;97.59;101383.09;5235415;28;20028;-71
2023/07/13 03:54:18;;;;;;;15.73;3.30;;;;;;;16.60;97.28;101386.34;5218130;28;20041;-71
2023/07/13 03:56:50;;;;;;;10.80;3.27;;;;;;;16.55;97.78;101379.59;5234752;28;20029;-71
2023/07/13 03:59:21;;;;;;;13.30;3.43;;;;;;;16.51;98.97;101387.88;5235426;28;20025;-71
2023/07/13 04:01:53;;;;;;;11.10;3.10;;;;;;;16.32;100.00;101397.19;5199686;28;20064;-71
2023/07/13 04:04:25;;;;;;;8.97;3.13;;;;;;;16.45;100.00;101397.13;5216270;28;20589;-71
2023/07/13 04:06:58;;;;;;;11.27;3.13;;;;;;;16.47;100.00;101408.41;5234319;28;20104;-71
2023/07/13 04:09:29;;;;;;;12.53;3.73;;;;;;;16.40;100.00;101408.03;5234844;28;20531;-71
2023/07/13 04:12:01;;;;;;;14.67;4.30;;;;;;;16.45;100.00;101410.34;5234827;28;20274;-71
2023/07/13 04:14:32;;;;;;;12.27;3.63;;;;;;;16.33;100.00;101407.66;5234847;28;20499;-71
2023/07/13 04:17:04;;;;;;;15.17;3.57;;;;;;;16.52;100.00;101416.00;5234903;28;20049;-71
2023/07/13 04:19:36;;;;;;;9.90;3.77;;;;;;;16.54;100.00;101425.50;5233571;28;20083;-71
2023/07/13 04:22:07;;;;;;;10.90;3.30;;;;;;;16.56;100.00;101417.44;5234719;28;20124;-71
2023/07/13 04:24:38;;;;;;;17.97;5.17;;;;;;;16.64;100.00;101425.63;5234538;28;20092;-71
2023/07/13 04:27:10;;;;;;;13.03;4.57;;;;;;;16.61;100.00;101420.59;5234625;28;20030;-71
2023/07/13 04:29:41;;;;;;;11.93;3.93;;;;;;;16.61;100.00;101417.94;5234562;28;20040;-71
2023/07/13 04:32:13;;;;;;;17.57;4.47;;;;;;;16.63;100.00;101405.44;5211857;28;20116;-71
2023/07/13 04:34:44;;;;;;;18.20;5.20;;;;;;;16.74;100.00;101414.34;5233371;28;20022;-71
2023/07/13 04:37:15;;;;;;;13.87;5.37;;;;;;;16.76;100.00;101407.13;5233902;28;20039;-71
2023/07/13 04:39:47;;;;;;;22.03;5.77;;;;;;;16.86;100.00;101412.56;5233769;28;20133;-71
2023/07/13 04:42:18;;;;;;;14.10;6.50;;;;;;;16.79;100.00;101425.41;5215623;28;20108;-71
2023/07/13 04:44:51;;;;;;;19.10;6.80;;;;;;;16.82;100.00;101425.19;5233735;28;20021;-71
2023/07/13 04:47:22;;;;;;;17.13;6.80;;;;;;;16.86;100.00;101426.59;5232657;28;20029;-71
2023/07/13 04:49:54;;;;;;;22.73;7.90;;;;;;;16.90;100.00;101433.34;5214891;28;20032;-71
2023/07/13 04:52:25;;;;;;;19.97;7.93;;;;;;;16.92;100.00;101427.94;5233686;28;20029;-71
2023/07/13 04:54:56;;;;;;;19.27;8.43;;;;;;;16.91;100.00;101421.78;5233618;28;20117;-71
2023/07/13 04:57:28;;;;;;;21.23;7.53;;;;;;;17.08;100.00;101432.03;5233629;28;20407;-71
2023/07/13 05:00:01;;;;;;;24.90;9.40;;;;;;;17.06;100.00;101424.22;5233616;28;20033;-71
2023/07/13 05:02:33;;;;;;;22.33;9.60;;;;;;;17.08;100.00;101430.25;5227463;28;20038;-71
2023/07/13 05:05:06;;;;;;;25.23;10.60;;;;;;;17.10;100.00;101433.63;5232917;28;20033;-71
2023/07/13 05:07:37;;;;;;;25.70;12.17;;;;;;;17.11;100.00;101437.97;5233363;28;20439;-71
2023/07/13 05:10:09;;;;;;;23.60;11.20;;;;;;;17.12;100.00;101436.97;5234446;28;20032;-72
2023/07/13 05:12:40;;;;;;;25.93;11.03;;;;;;;17.25;100.00;101439.53;5233190;28;20041;-71
2023/07/13 05:15:12;;;;;;;32.23;12.20;;;;;;;17.28;100.00;101443.72;5234006;28;20030;-71
2023/07/13 05:17:43;;;;;;;28.47;11.17;;;;;;;17.35;100.00;101446.75;5233906;28;20025;-71
2023/07/13 05:20:15;;;;;;;23.47;13.17;;;;;;;17.35;100.00;101444.09;5232283;28;20280;-71
2023/07/13 05:22:47;;;;;;;30.00;11.40;;;;;;;17.32;100.00;101449.59;5233538;28;20044;-71
2023/07/13 05:25:19;;;;;;;28.50;11.47;;;;;;;17.42;100.00;101451.41;5233488;28;20017;-71
2023/07/13 05:27:50;;;;;;;28.13;10.73;;;;;;;17.41;100.00;101455.03;5233105;28;20033;-71
2023/07/13 05:30:21;;;;;;;30.67;11.70;;;;;;;17.45;100.00;101465.38;5231332;28;20022;-71
2023/07/13 05:32:53;;;;;;;30.03;12.40;;;;;;;17.41;100.00;101468.28;5224632;28;20129;-71
2023/07/13 05:35:24;;;;;;;34.10;11.10;;;;;;;17.46;100.00;101470.53;5232232;28;20476;-71
2023/07/13 05:37:55;;;;;;;25.17;10.17;;;;;;;17.42;100.00;101464.66;5215362;28;20044;-71
2023/07/13 05:40:27;;;;;;;28.70;10.70;;;;;;;17.48;100.00;101473.06;5228678;28;20075;-71
2023/07/13 05:42:58;;;;;;;30.30;11.40;;;;;;;17.47;100.00;101464.28;5225925;28;20037;-71
2023/07/13 05:45:29;;;;;;;24.13;11.43;;;;;;;17.51;100.00;101460.44;5232667;28;20080;-71
2023/07/13 05:48:01;;;;;;;22.43;11.57;;;;;;;17.52;100.00;101466.56;5215221;28;20021;-71
2023/07/13 05:50:32;;;;;;;25.83;11.77;;;;;;;17.60;100.00;101456.19;5202711;28;20044;-71
2023/07/13 05:53:04;;;;;;;24.90;11.07;;;;;;;17.61;100.00;101472.94;5223225;28;20033;-71
2023/07/13 05:55:40;;;;;;;23.83;12.37;;;;;;;17.67;100.00;101475.09;5232422;28;20096;-71
2023/07/13 05:58:12;;;;;;;23.23;10.87;;;;;;;17.68;100.00;101470.63;5230216;28;20427;-71
2023/07/13 06:00:43;;;;;;;28.20;12.63;;;;;;;17.55;100.00;101474.25;5228338;28;20041;-71
2023/07/13 06:03:15;;;;;;;21.40;10.30;;;;;;;17.73;100.00;101476.41;5226790;28;20494;-71
2023/07/13 06:05:46;;;;;;;30.23;11.33;;;;;;;17.78;100.00;101482.19;5238983;28;20088;-71
2023/07/13 06:08:18;;;;;;;24.43;10.43;;;;;;;17.75;100.00;101491.19;5232217;28;20025;-71
2023/07/13 06:10:49;;;;;;;29.57;12.53;;;;;;;17.78;100.00;101487.47;5231836;28;20040;-71
2023/07/13 06:13:20;;;;;;;24.47;11.30;;;;;;;17.96;100.00;101479.81;5232679;28;20021;-71
2023/07/13 06:15:52;;;;;;;25.90;10.93;;;;;;;18.02;100.00;101495.25;5232144;28;20029;-73
2023/07/13 06:18:23;;;;;;;31.30;11.80;;;;;;;18.07;100.00;101491.34;5232040;28;20027;-70
2023/07/13 06:20:54;;;;;;;20.60;11.47;;;;;;;18.13;100.00;101506.78;5231747;28;20222;-70
2023/07/13 06:23:26;;;;;;;22.83;10.90;;;;;;;18.20;100.00;101496.53;5233061;28;20013;-70
2023/07/13 06:25:57;;;;;;;30.70;11.87;;;;;;;18.12;100.00;101497.97;5232682;28;20030;-70
2023/07/13 06:28:30;;;;;;;25.90;10.60;;;;;;;18.20;100.00;101497.38;5213112;28;20026;-70
2023/07/13 06:31:04;;;;;;;21.30;11.07;;;;;;;18.25;100.00;101502.28;5224150;28;20515;-70
2023/07/13 06:33:35;;;;;;;28.05;11.40;;;;;;;18.26;100.00;101501.31;5228359;28;20353;-70
2023/07/13 06:36:08;;;;;;;22.00;9.93;;;;;;;18.25;100.00;101510.25;5222235;28;20080;-70
2023/07/13 06:38:39;;;;;;;24.50;12.27;;;;;;;18.28;100.00;101506.50;5232701;28;20051;-69
2023/07/13 06:41:12;;;;;;;21.60;10.33;;;;;;;18.26;100.00;101501.31;5231935;28;20431;-70
2023/07/13 06:43:43;;;;;;;25.20;11.17;;;;;;;18.31;100.00;101515.03;5215071;28;20025;-72
2023/07/13 06:46:14;;;;;;;33.83;11.40;;;;;;;18.25;100.00;101499.66;5231283;28;20064;-72
2023/07/13 06:48:46;;;;;;;24.87;10.17;;;;;;;18.32;100.00;101508.78;5231794;28;20072;-72
2023/07/13 06:51:17;;;;;;;26.10;11.00;;;;;;;18.32;100.00;101511.44;5191970;28;20028;-72
2023/07/13 06:53:49;;;;;;;22.27;10.90;;;;;;;18.34;100.00;101513.94;5194255;28;20063;-72
2023/07/13 06:56:21;;;;;;;22.97;10.47;;;;;;;18.34;100.00;101520.09;5219253;28;20110;-72
2023/07/13 06:58:53;;;;;;;23.47;11.00;;;;;;;18.45;100.00;101523.69;5227513;28;20117;-72
2023/07/13 07:01:24;;;;;;;21.87;9.07;;;;;;;18.52;100.00;101516.88;5233400;28;20056;-72
2023/07/13 07:03:55;;;;;;;22.83;10.27;;;;;;;18.59;100.00;101528.66;5231599;28;20045;-73
2023/07/13 07:06:27;;;;;;;17.63;9.47;;;;;;;18.52;100.00;101516.88;5236176;28;20056;-73
2023/07/13 07:08:59;;;;;;;24.13;9.57;;;;;;;18.59;100.00;101525.16;5215228;28;20061;-72
2023/07/13 07:11:30;;;;;;;20.60;9.73;;;;;;;18.63;100.00;101523.94;5216040;28;20068;-72
2023/07/13 07:14:01;;;;;;;27.20;9.70;;;;;;;18.75;100.00;101524.72;5233667;28;20419;-71
2023/07/13 07:16:33;;;;;;;20.37;8.77;;;;;;;18.94;100.00;101525.78;5236386;28;20038;-71
2023/07/13 07:19:04;;;;;;;21.33;9.30;;;;;;;18.94;100.00;101520.50;5234956;28;20037;-71
2023/07/13 07:21:35;;;;;;;21.83;9.07;;;;;;;19.07;100.00;101526.44;5217566;28;20026;-71
2023/07/13 07:24:07;;;;;;;23.83;9.33;;;;;;;19.14;100.00;101529.44;5212022;28;20032;-72
2023/07/13 07:26:38;;;;;;;26.00;8.47;;;;;;;19.46;99.83;101532.94;5232452;28;20053;-73
2023/07/13 07:29:10;;;;;;;17.70;8.27;;;;;;;19.46;96.80;101524.97;5230094;28;20354;-73
2023/07/13 07:31:41;;;;;;;18.70;7.57;;;;;;;19.72;97.06;101535.13;5232146;28;20488;-73
2023/07/13 07:34:12;;;;;;;22.77;8.97;;;;;;;19.91;94.31;101538.81;5234422;28;20021;-72
2023/07/13 07:36:44;;;;;;;20.33;8.13;;;;;;;20.46;92.89;101537.47;5228940;28;20132;-73
2023/07/13 07:39:16;;;;;;;20.40;7.10;;;;;;;20.92;86.39;101536.84;5235027;28;20595;-73
2023/07/13 07:41:47;;;;;;;32.37;7.90;;;;;;;20.96;85.92;101532.97;5217206;28;20109;-73
2023/07/13 07:44:19;;;;;;;18.20;6.73;;;;;;;21.07;83.61;101544.41;5235410;28;20137;-73
2023/07/13 07:46:50;;;;;;;16.93;6.03;;;;;;;21.31;81.88;101535.91;5234119;28;20049;-73
2023/07/13 07:49:22;;;;;;;26.07;6.97;;;;;;;21.86;79.40;101538.75;5235013;28;20022;-73
2023/07/13 07:51:53;;;;;;;16.20;5.72;;;;;;;22.07;75.12;101535.81;5235107;28;20053;-72
2023/07/13 07:54:24;;;;;;;20.30;5.90;;;;;;;22.10;73.31;101534.66;5235111;28;20080;-74
2023/07/13 07:56:56;;;;;;;13.20;5.32;;;;;;;22.43;72.80;101532.28;5214554;28;20025;-73
2023/07/13 07:59:27;;;;;;;18.38;6.72;;;;;;;22.41;72.08;101533.44;5230724;28;20472;-73
2023/07/13 08:01:58;;;;;;;19.05;5.60;;;;;;;22.37;71.66;101538.25;5231508;28;20032;-74
2023/07/13 08:04:30;;;;;;;15.07;4.90;;;;;;;22.24;71.15;101536.78;5223635;28;20042;-73
2023/07/13 08:07:02;;;;;;;15.93;5.03;;;;;;;22.18;69.96;101542.75;5234078;28;20503;-73
2023/07/13 08:09:34;;;;;;;18.60;4.88;;;;;;;22.14;70.03;101546.69;5234128;28;20026;-74
2023/07/13 08:12:05;;;;;;;14.35;4.65;;;;;;;22.16;68.87;101543.88;5229320;28;20502;-74
2023/07/13 08:14:38;;;;;;;11.18;4.07;;;;;;;22.22;69.19;101544.09;5215950;28;20030;-76
2023/07/13 08:17:09;;;;;;;18.13;6.00;;;;;;;22.55;67.61;101551.56;5226088;28;20034;-76
2023/07/13 08:19:41;;;;;;;14.70;4.43;;;;;;;22.86;66.97;101541.47;5231276;28;20033;-74
2023/07/13 08:22:12;;;;;;;11.75;5.00;;;;;;;23.24;66.34;101551.84;5216031;28;20029;-75
2023/07/13 08:24:43;;;;;;;15.93;4.70;;;;;;;24.13;61.16;101540.81;5232284;28;20029;-77
2023/07/13 08:27:15;;;;;;;17.50;5.10;;;;;;;24.10;58.70;101540.31;5234522;28;20049;-74
2023/07/13 08:29:48;;;;;;;16.45;4.97;;;;;;;24.57;59.11;101546.88;5231998;28;20099;-75
2023/07/13 08:32:21;;;;;;;13.75;4.13;;;;;;;24.81;55.63;101547.00;5234028;28;20021;-74
2023/07/13 08:34:52;;;;;;;16.55;4.47;;;;;;;24.44;54.54;101551.88;5215693;28;20017;-75
2023/07/13 08:37:24;;;;;;;19.42;3.97;;;;;;;24.76;54.94;101556.41;5233535;28;20523;-74
2023/07/13 08:39:55;;;;;;;15.13;4.07;;;;;;;25.14;51.95;101541.59;5234760;28;20122;-75
2023/07/13 08:42:42;;;;;;;9.32;3.60;;;;;;;25.31;52.78;101547.72;5223301;28;20028;-75
2023/07/13 08:45:24;;;;;;;12.60;3.97;;;;;;;24.96;54.18;101549.88;5220984;28;20026;-73
2023/07/13 08:48:03;;;;;;;9.23;3.15;;;;;;;24.85;52.89;101541.16;5232019;28;20025;-74
2023/07/13 08:50:54;;;;;;;17.40;4.38;;;;;;;25.33;52.47;101545.72;5233120;28;20136;-73
2023/07/13 08:53:36;;;;;;;16.42;4.45;;;;;;;24.78;51.93;101548.19;5232848;28;20047;-74
2023/07/13 08:56:19;;;;;;;14.93;4.55;;;;;;;24.63;53.50;101548.88;5232885;28;20029;-75
2023/07/13 08:59:00;;;;;;;10.68;4.00;;;;;;;24.54;53.59;101541.88;5233324;28;20121;-74
2023/07/13 09:01:38;;;;;;;11.80;4.45;;;;;;;24.68;54.43;101537.63;5215504;28;20021;-74
2023/07/13 09:04:16;;;;;;;14.60;3.75;;;;;;;24.89;52.29;101542.47;5234645;28;20049;-74
2023/07/13 09:06:54;;;;;;;14.55;4.43;;;;;;;25.21;50.74;101547.09;5221157;28;20033;-73
2023/07/13 09:10:05;;;;;;;13.80;4.20;;;;;;;26.01;49.63;101551.63;5216766;28;20029;-73
2023/07/13 09:12:53;;;;;;;11.65;3.80;;;;;;;26.48;47.06;101546.25;5216694;28;20030;-73
2023/07/13 09:15:32;;;;;;;13.52;3.90;;;;;;;26.03;46.18;101528.94;5230648;28;20411;-73
2023/07/13 09:18:14;;;;;;;12.95;3.83;;;;;;;25.99;47.51;101551.75;5238173;28;20029;-73
2023/07/13 09:20:54;;;;;;;14.10;3.97;;;;;;;25.78;46.36;101550.56;5216846;28;20102;-73
2023/07/13 09:23:29;;;;;;;19.42;4.00;;;;;;;25.89;46.55;101548.47;5234276;28;20490;-73
2023/07/13 09:26:16;;;;;;;22.02;3.83;;;;;;;26.39;46.59;101537.44;5235487;28;20468;-74
2023/07/13 09:28:53;;;;;;;11.73;3.22;;;;;;;26.42;44.23;101535.22;5233604;28;20044;-73
2023/07/13 09:31:34;;;;;;;12.43;4.15;;;;;;;26.65;44.47;101541.56;5234492;28;20060;-73
2023/07/13 09:34:11;;;;;;;12.95;3.40;;;;;;;26.83;42.91;101541.19;5223064;28;20587;-74
2023/07/13 09:36:44;;;;;;;7.63;3.15;;;;;;;26.67;42.83;101539.53;5238752;28;20034;-74
2023/07/13 09:39:42;;;;;;;11.93;3.20;;;;;;;26.62;44.53;101545.44;5233875;28;20472;-74
2023/07/13 09:42:22;;;;;;;12.70;3.20;;;;;;;26.82;43.75;101540.38;5233639;28;20021;-74
2023/07/13 09:44:56;;;;;;;16.88;3.17;;;;;;;26.63;43.07;101541.75;5226189;28;20034;-75
2023/07/13 09:47:29;;;;;;;;;;;;;;;27.64;43.07;101538.75;5233717;28;20013;-75
2023/07/13 09:50:06;;;;;;;11.38;3.60;;;;;;;27.63;40.89;101537.91;5233004;28;20004;-75
2023/07/13 09:52:45;;;;;;;12.02;3.55;;;;;;;28.05;41.12;101547.28;5219878;28;20496;-75
2023/07/13 09:55:31;;;;;;;8.38;3.15;;;;;;;28.79;39.00;101545.19;5233205;28;20022;-75
2023/07/13 09:58:05;;;;;;;10.75;2.53;;;;;;;28.59;37.99;101548.56;5216549;28;20087;-75
2023/07/13 10:00:39;;;;;;;17.05;3.65;;;;;;;28.83;38.00;101556.41;5232864;28;20034;-74
2023/07/13 10:03:21;;;;;;;15.57;3.10;;;;;;;28.73;38.83;101552.19;5219175;28;20033;-75
2023/07/13 10:05:53;;;;;;;9.65;2.55;;;;;;;28.46;40.08;101546.63;5247175;28;20448;-73
2023/07/13 10:08:29;;;;;;;9.32;3.88;;;;;;;28.44;38.05;101542.44;5219738;28;20017;-75
2023/07/13 10:11:09;;;;;;;13.50;2.95;;;;;;;28.42;39.34;101544.50;5233511;28;20032;-75
2023/07/13 10:13:50;;;;;;;10.95;2.65;;;;;;;28.75;39.42;101552.00;5233609;28;20028;-75
2023/07/13 10:16:24;;;;;;;10.50;3.35;;;;;;;29.00;36.75;101540.78;5233128;28;20025;-75
2023/07/13 10:19:00;;;;;;;13.00;2.67;;;;;;;29.15;35.69;101548.72;5232354;28;20087;-75
2023/07/13 10:21:38;;;;;;;12.77;2.83;;;;;;;29.09;36.22;101550.38;5232699;28;20044;-75
2023/07/13 10:24:18;;;;;;;13.43;3.25;;;;;;;29.34;35.67;101549.03;5233901;28;20036;-74
2023/07/13 10:27:04;;;;;;;10.88;2.28;;;;;;;29.58;35.98;101555.78;5233073;28;20456;-75
2023/07/13 10:30:02;;;;;;;13.25;2.65;;;;;;;29.34;36.34;101565.22;5215505;28;20025;-75
2023/07/13 10:32:33;;;;;;;7.85;2.35;;;;;;;29.10;36.78;101538.56;5207367;28;20487;-75
2023/07/13 10:35:07;;;;;;;6.68;2.67;;;;;;;28.78;36.40;101546.22;5232906;28;20032;-75
2023/07/13 10:38:07;;;;;;;7.78;2.70;;;;;;;29.03;37.68;101561.94;5239056;28;20070;-75
2023/07/13 10:40:42;;;;;;;10.20;3.67;;;;;;;28.06;38.42;101549.78;5215522;28;20108;-75
2023/07/13 10:43:28;;;;;;;9.05;2.17;;;;;;;28.19;39.07;101567.91;5233415;28;20030;-75
2023/07/13 10:46:01;;;;;;;10.10;2.80;;;;;;;27.48;44.75;101572.91;5221610;28;20033;-77
2023/07/13 10:48:34;;;;;;;;;;;;;;;28.33;41.96;101586.88;5236565;28;20521;-75
2023/07/13 10:51:07;;;;;;;8.52;2.92;;;;;;;26.54;53.35;101581.28;5237602;28;19913;-76
2023/07/13 10:53:42;;;;;;;11.55;4.22;;;;;;;26.55;52.43;101590.13;5236868;28;20033;-75
2023/07/13 10:56:28;;;;;;;11.02;3.67;;;;;;;26.43;52.74;101587.06;5237182;28;20468;-72
2023/07/13 10:59:08;;;;;;;10.93;3.20;;;;;;;26.59;51.26;101591.47;5219641;28;20037;-73
2023/07/13 11:01:47;;;;;;;10.73;4.78;;;;;;;26.08;53.11;101579.38;5240476;28;20028;-75
2023/07/13 11:04:20;;;;;;;8.50;3.53;;;;;;;26.39;54.71;101580.38;5226595;28;20585;-76
2023/07/13 11:07:10;;;;;;;10.93;4.43;;;;;;;26.65;53.62;101582.66;5232745;28;20468;-79
2023/07/13 11:09:47;;;;;;;10.98;3.22;;;;;;;27.22;50.20;101582.31;5216806;28;20029;-80
2023/07/13 11:12:26;;;;;;;8.38;3.90;;;;;;;27.43;49.00;101575.34;5232697;28;20528;-77
2023/07/13 11:15:02;;;;;;;7.65;3.30;;;;;;;27.92;45.25;101580.25;5228665;28;20030;-77
2023/07/13 11:17:37;;;;;;;11.45;4.18;;;;;;;28.24;44.15;101576.22;5219214;28;20029;-77
2023/07/13 11:20:12;;;;;;;7.30;3.00;;;;;;;28.40;43.01;101579.72;5207597;28;20469;-78
2023/07/13 11:22:52;;;;;;;8.95;3.58;;;;;;;28.45;43.23;101569.19;5225643;28;20053;-77
2023/07/13 11:25:26;;;;;;;6.25;3.17;;;;;;;28.00;43.32;101574.75;5217311;28;20076;-78
2023/07/13 11:28:17;;;;;;;9.85;3.30;;;;;;;28.24;40.16;101567.34;5211306;28;20036;-76
2023/07/13 11:30:57;;;;;;;9.75;4.07;;;;;;;28.09;41.09;101572.75;5230562;28;20072;-75
2023/07/13 11:33:38;;;;;;;8.15;3.95;;;;;;;28.37;40.81;101567.47;5223361;28;20029;-76
2023/07/13 11:36:14;;;;;;;9.90;3.50;;;;;;;28.40;40.73;101573.50;5227446;28;20026;-73
2023/07/13 11:38:57;;;;;;;9.27;3.15;;;;;;;28.58;40.70;101578.41;5218195;28;20022;-72
2023/07/13 11:41:35;;;;;;;9.23;3.57;;;;;;;28.80;40.03;101567.59;5235922;28;20022;-71
2023/07/13 11:44:17;;;;;;;6.95;3.00;;;;;;;29.12;38.92;101573.41;5236605;28;20021;-71
2023/07/13 11:46:51;;;;;;;11.57;3.45;;;;;;;28.94;37.49;101569.31;5235811;28;20093;-71
2023/07/13 11:49:26;;;;;;;8.23;2.85;;;;;;;28.32;39.09;101575.28;5218710;28;20033;-73